createdAt,value
2023-04-25T00:02:36.222Z,8.93
2023-04-25T00:05:16.470Z,8.25
2023-04-25T00:07:56.787Z,9.75
2023-04-25T00:10:32.853Z,8.97
2023-04-25T00:13:23.767Z,8.85
2023-04-25T00:15:58.204Z,8.52
2023-04-25T00:18:34.467Z,12.68
2023-04-25T00:21:21.652Z,9.05
2023-04-25T00:24:04.677Z,9.13
2023-04-25T00:29:29.038Z,11.32
2023-04-25T00:32:11.108Z,11.30
2023-04-25T00:34:56.287Z,9.32
2023-04-25T00:37:43.325Z,9.20
2023-04-25T00:40:22.943Z,9.60
2023-04-25T00:42:59.492Z,10.60
2023-04-25T00:45:45.516Z,9.75
2023-04-25T00:48:21.333Z,8.60
2023-04-25T00:51:07.168Z,7.43
2023-04-25T00:53:55.877Z,8.55
2023-04-25T00:56:36.760Z,8.07
2023-04-25T00:59:26.671Z,6.40
2023-04-25T01:02:07.743Z,8.68
2023-04-25T01:04:44.527Z,7.75
2023-04-25T01:07:21.098Z,6.85
2023-04-25T01:10:04.593Z,6.75
2023-04-25T01:12:45.005Z,6.07
2023-04-25T01:15:37.763Z,6.82
2023-04-25T01:18:22.352Z,7.78
2023-04-25T01:21:03.007Z,5.88
2023-04-25T01:23:43.386Z,6.75
2023-04-25T01:26:27.356Z,5.22
2023-04-25T01:29:01.111Z,5.72
2023-04-25T01:31:37.505Z,5.43
2023-04-25T01:34:15.817Z,4.95
2023-04-25T01:36:52.872Z,4.85
2023-04-25T01:39:41.884Z,5.75
2023-04-25T01:42:16.936Z,4.50
2023-04-25T01:44:49.329Z,4.07
2023-04-25T01:47:31.746Z,3.60
2023-04-25T01:50:08.970Z,3.83
2023-04-25T01:52:41.838Z,2.63
2023-04-25T01:55:25.244Z,3.53
2023-04-25T01:58:12.395Z,3.30
2023-04-25T02:01:12.796Z,3.92
2023-04-25T02:03:55.306Z,4.18
2023-04-25T02:06:40.237Z,4.68
2023-04-25T02:09:18.113Z,5.97
2023-04-25T02:12:05.961Z,4.07
2023-04-25T02:14:59.195Z,3.90
2023-04-25T02:17:48.734Z,4.57
2023-04-25T02:20:26.943Z,6.18
2023-04-25T02:23:03.165Z,4.40
2023-04-25T02:25:40.136Z,5.40
2023-04-25T02:28:26.197Z,5.68
2023-04-25T02:33:44.710Z,7.88
2023-04-25T02:36:25.247Z,7.25
2023-04-25T02:38:59.734Z,7.47
2023-04-25T02:41:38.887Z,8.05
2023-04-25T02:44:18.556Z,6.68
2023-04-25T02:46:56.232Z,5.95
2023-04-25T02:49:40.623Z,8.15
2023-04-25T02:52:17.395Z,6.18
2023-04-25T02:54:58.786Z,6.40
2023-04-25T02:57:47.477Z,6.40
2023-04-25T03:00:40.108Z,6.35
2023-04-25T03:03:21.595Z,6.40
2023-04-25T03:06:04.099Z,6.63
2023-04-25T03:08:41.880Z,9.15
2023-04-25T03:11:17.522Z,6.82
2023-04-25T03:13:51.102Z,7.85
2023-04-25T03:16:31.456Z,6.03
2023-04-25T03:19:13.479Z,6.38
2023-04-25T03:21:46.181Z,6.85
2023-04-25T03:24:27.569Z,8.73
2023-04-25T03:27:04.594Z,6.97
2023-04-25T03:29:48.958Z,7.00
2023-04-25T03:32:28.294Z,6.22
2023-04-25T03:35:07.298Z,5.80
2023-04-25T03:37:48.049Z,6.88
2023-04-25T03:40:43.201Z,5.35
2023-04-25T03:43:29.348Z,5.28
2023-04-25T03:46:09.653Z,5.40
2023-04-25T03:48:48.634Z,9.18
2023-04-25T03:51:33.441Z,5.30
2023-04-25T03:54:11.514Z,5.43
2023-04-25T03:57:07.231Z,5.37
2023-04-25T04:00:10.246Z,5.97
2023-04-25T04:02:53.150Z,7.20
2023-04-25T04:05:48.404Z,4.50
2023-04-25T04:08:32.517Z,4.55
2023-04-25T04:11:07.755Z,6.57
2023-04-25T04:13:44.126Z,5.57
2023-04-25T04:16:35.039Z,3.75
2023-04-25T04:19:09.672Z,5.28
2023-04-25T04:21:52.623Z,4.40
2023-04-25T04:24:26.685Z,4.10
2023-04-25T04:27:26.937Z,5.25
2023-04-25T04:30:20.764Z,4.50
2023-04-25T04:33:36.553Z,3.90
2023-04-25T04:36:23.468Z,4.85
2023-04-25T04:38:59.992Z,3.85
2023-04-25T04:41:44.146Z,3.15
2023-04-25T04:44:41.891Z,4.57
2023-04-25T04:47:32.526Z,3.75
2023-04-25T04:50:22.226Z,5.28
2023-04-25T04:53:36.840Z,4.72
2023-04-25T04:56:43.072Z,4.75
2023-04-25T04:59:36.773Z,5.18
2023-04-25T05:05:42.940Z,5.07
2023-04-25T05:08:39.157Z,7.57
2023-04-25T05:11:42.861Z,6.00
2023-04-25T05:14:43.764Z,7.82
2023-04-25T05:17:40.564Z,6.38
2023-04-25T05:20:47.976Z,8.38
2023-04-25T05:23:46.845Z,7.22
2023-04-25T05:26:50.213Z,6.88
2023-04-25T05:29:32.084Z,7.00
2023-04-25T05:32:43.269Z,6.85
2023-04-25T05:35:22.876Z,9.50
2023-04-25T05:38:13.621Z,7.60
2023-04-25T05:41:31.355Z,9.55
2023-04-25T05:44:47.457Z,7.72
2023-04-25T05:47:51.384Z,9.70
2023-04-25T05:53:18.744Z,9.95
2023-04-25T05:55:57.974Z,12.60
2023-04-25T05:58:39.084Z,8.35
2023-04-25T06:03:57.849Z,9.02
2023-04-25T06:06:33.094Z,7.95
2023-04-25T06:09:09.409Z,8.52
2023-04-25T06:11:47.992Z,10.65
2023-04-25T06:14:22.845Z,5.78
2023-04-25T06:17:08.029Z,5.75
2023-04-25T06:19:42.238Z,5.82
2023-04-25T06:22:16.117Z,5.30
2023-04-25T06:24:50.191Z,7.18
2023-04-25T06:27:22.385Z,5.35
2023-04-25T06:30:01.990Z,5.82
2023-04-25T06:32:49.608Z,7.78
2023-04-25T06:35:27.260Z,5.22
2023-04-25T06:38:02.105Z,4.50
2023-04-25T06:40:55.501Z,8.93
2023-04-25T06:43:43.289Z,6.55
2023-04-25T06:46:35.887Z,6.40
2023-04-25T06:49:12.581Z,5.32
2023-04-25T06:51:50.507Z,5.38
2023-04-25T06:54:28.572Z,5.45
2023-04-25T06:57:31.012Z,8.55
2023-04-25T07:00:37.702Z,7.57
2023-04-25T07:03:13.896Z,4.57
2023-04-25T07:06:00.147Z,7.15
2023-04-25T07:08:40.953Z,6.38
2023-04-25T07:11:18.021Z,5.72
2023-04-25T07:13:52.087Z,4.93
2023-04-25T07:16:28.072Z,5.05
2023-04-25T07:19:06.345Z,5.95
2023-04-25T07:21:48.394Z,7.95
2023-04-25T07:27:01.032Z,5.35
2023-04-25T07:32:24.940Z,7.10
2023-04-25T07:34:58.859Z,6.75
2023-04-25T07:37:34.281Z,7.00
2023-04-25T07:40:18.152Z,9.13
2023-04-25T07:43:01.103Z,5.93
2023-04-25T07:45:41.014Z,3.75
2023-04-25T07:48:17.118Z,4.55
2023-04-25T07:50:48.375Z,4.55
2023-04-25T07:53:36.178Z,4.72
2023-04-25T07:56:19.381Z,5.40
2023-04-25T07:59:02.309Z,3.45
2023-04-25T08:01:34.323Z,7.85
2023-04-25T08:04:17.186Z,6.45
2023-04-25T08:06:59.446Z,4.05
2023-04-25T08:09:39.789Z,6.75
2023-04-25T08:12:17.375Z,8.52
2023-04-25T08:14:49.350Z,13.18
2023-04-25T08:17:27.786Z,11.35
2023-04-25T08:20:13.584Z,7.47
2023-04-25T08:22:53.583Z,10.73
2023-04-25T08:25:38.099Z,5.25
2023-04-25T08:28:15.268Z,12.20
2023-04-25T08:30:56.859Z,11.40
2023-04-25T08:33:32.467Z,7.90
2023-04-25T08:36:40.275Z,7.80
2023-04-25T08:39:36.292Z,3.88
2023-04-25T08:42:44.554Z,3.22
2023-04-25T08:45:19.381Z,4.55
2023-04-25T08:47:56.864Z,3.25
2023-04-25T08:51:02.587Z,3.28
2023-04-25T08:53:38.649Z,4.07
2023-04-25T08:56:36.476Z,2.97
2023-04-25T08:59:23.128Z,2.58
2023-04-25T09:02:02.296Z,3.25
2023-04-25T09:04:48.320Z,5.78
2023-04-25T09:07:43.563Z,3.60
2023-04-25T09:10:43.765Z,3.40
2023-04-25T09:13:24.652Z,2.13
2023-04-25T09:16:43.043Z,5.18
2023-04-25T09:19:40.398Z,3.08
2023-04-25T09:22:24.072Z,3.65
2023-04-25T09:25:18.670Z,4.18
2023-04-25T09:27:59.618Z,2.92
2023-04-25T09:30:43.514Z,4.03
2023-04-25T09:33:45.001Z,1.90
2023-04-25T09:36:19.691Z,2.45
2023-04-25T09:39:29.598Z,4.22
2023-04-25T09:42:13.447Z,2.95
2023-04-25T09:45:09.934Z,4.13
2023-04-25T09:47:52.109Z,4.13
2023-04-25T09:50:40.559Z,2.80
2023-04-25T09:53:31.707Z,3.90
2023-04-25T09:56:24.317Z,4.03
2023-04-25T09:59:11.220Z,4.72
2023-04-25T10:02:01.658Z,2.22
2023-04-25T10:04:43.334Z,3.97
2023-04-25T10:07:43.196Z,6.30
2023-04-25T10:10:34.379Z,5.18
2023-04-25T10:13:19.569Z,6.93
2023-04-25T10:18:33.465Z,3.15
2023-04-25T10:21:10.844Z,3.72
2023-04-25T10:23:47.004Z,6.45
2023-04-25T10:26:25.730Z,2.85
2023-04-25T10:29:12.144Z,7.32
2023-04-25T10:31:54.559Z,2.20
2023-04-25T10:34:52.863Z,4.95
2023-04-25T10:37:26.139Z,4.22
2023-04-25T10:39:59.040Z,2.83
2023-04-25T10:42:40.073Z,3.05
2023-04-25T10:45:14.934Z,2.67
2023-04-25T10:47:52.300Z,3.47
2023-04-25T10:50:29.404Z,2.95
2023-04-25T10:53:23.404Z,5.15
2023-04-25T10:56:22.878Z,4.93
2023-04-25T10:59:02.020Z,1.80
2023-04-25T11:01:48.781Z,2.75
2023-04-25T11:04:42.697Z,1.88
2023-04-25T11:07:27.715Z,2.17
2023-04-25T11:10:16.543Z,5.82
2023-04-25T11:13:10.483Z,2.78
2023-04-25T11:15:54.782Z,2.55
2023-04-25T11:18:36.580Z,5.97
2023-04-25T11:21:13.544Z,3.55
2023-04-25T11:23:55.407Z,7.30
2023-04-25T11:26:30.132Z,3.42
2023-04-25T11:29:09.904Z,5.60
2023-04-25T11:31:47.263Z,2.70
2023-04-25T11:34:27.673Z,5.53
2023-04-25T11:37:12.723Z,2.83
2023-04-25T11:39:55.790Z,7.03
2023-04-25T11:42:33.907Z,4.28
2023-04-25T11:45:12.351Z,4.90
2023-04-25T11:48:02.720Z,4.18
2023-04-25T11:50:36.809Z,4.20
2023-04-25T11:53:16.583Z,3.85
2023-04-25T11:56:05.158Z,2.55
2023-04-25T11:58:59.806Z,4.85
2023-04-25T12:01:42.357Z,2.58
2023-04-25T12:04:27.662Z,4.72
2023-04-25T12:07:04.577Z,4.43
2023-04-25T12:09:39.278Z,2.90
2023-04-25T12:12:18.030Z,3.08
2023-04-25T12:14:56.712Z,2.53
2023-04-25T12:17:39.173Z,2.70
2023-04-25T12:20:26.662Z,2.25
2023-04-25T12:23:08.386Z,2.33
2023-04-25T12:25:49.622Z,7.80
2023-04-25T12:28:30.757Z,2.67
2023-04-25T12:31:39.780Z,2.40
2023-04-25T12:34:18.366Z,3.22
2023-04-25T12:37:01.549Z,3.40
2023-04-25T12:39:39.503Z,2.60
2023-04-25T12:42:13.803Z,5.05
2023-04-25T12:44:49.136Z,6.00
2023-04-25T12:47:32.769Z,8.27
2023-04-25T12:50:23.531Z,3.92
2023-04-25T12:52:58.620Z,6.20
2023-04-25T12:55:44.118Z,3.60
2023-04-25T12:58:21.259Z,10.57
2023-04-25T13:01:00.274Z,5.07
2023-04-25T13:03:37.382Z,11.77
2023-04-25T13:06:29.455Z,10.20
2023-04-25T13:09:04.972Z,2.92
2023-04-25T13:11:42.942Z,6.97
2023-04-25T13:14:20.318Z,3.22
2023-04-25T13:16:54.003Z,5.68
2023-04-25T13:19:45.469Z,5.90
2023-04-25T13:22:30.962Z,2.75
2023-04-25T13:25:10.787Z,2.17
2023-04-25T13:27:50.557Z,3.25
2023-04-25T13:30:35.568Z,6.03
2023-04-25T13:33:13.468Z,2.83
2023-04-25T13:35:58.101Z,4.65
2023-04-25T13:38:41.084Z,1.85
2023-04-25T13:41:26.274Z,8.57
2023-04-25T13:44:06.153Z,5.88
2023-04-25T13:47:07.569Z,4.20
2023-04-25T13:49:42.562Z,4.70
2023-04-25T13:52:24.398Z,3.17
2023-04-25T13:55:09.965Z,2.03
2023-04-25T13:57:58.387Z,3.17
2023-04-25T14:00:34.496Z,2.95
2023-04-25T14:03:12.831Z,6.47
2023-04-25T14:05:54.905Z,4.25
2023-04-25T14:08:30.918Z,4.72
2023-04-25T14:11:10.352Z,3.28
2023-04-25T14:13:44.179Z,4.10
2023-04-25T14:16:20.901Z,2.15
2023-04-25T14:18:59.962Z,3.45
2023-04-25T14:21:40.497Z,2.47
2023-04-25T14:24:17.802Z,4.15
2023-04-25T14:27:04.523Z,3.30
2023-04-25T14:29:39.789Z,1.98
2023-04-25T14:32:27.153Z,4.10
2023-04-25T14:35:01.145Z,2.15
2023-04-25T14:37:35.734Z,6.85
2023-04-25T14:40:10.123Z,4.80
2023-04-25T14:42:56.859Z,1.65
2023-04-25T14:45:37.858Z,2.00
2023-04-25T14:50:51.189Z,2.85
2023-04-25T14:53:29.662Z,5.82
2023-04-25T14:56:04.926Z,6.20
2023-04-25T14:58:46.994Z,4.05
2023-04-25T15:01:36.691Z,3.83
2023-04-25T15:04:12.239Z,2.00
2023-04-25T15:06:47.871Z,2.33
2023-04-25T15:09:27.320Z,1.58
2023-04-25T15:12:02.185Z,1.52
2023-04-25T15:14:36.711Z,3.33
2023-04-25T15:17:09.662Z,3.35
2023-04-25T15:19:47.253Z,3.10
2023-04-25T15:22:21.311Z,7.95
2023-04-25T15:24:55.641Z,4.00
2023-04-25T15:27:31.802Z,2.55
2023-04-25T15:30:18.951Z,3.15
2023-04-25T15:32:55.568Z,2.47
2023-04-25T15:35:43.696Z,2.17
2023-04-25T15:38:16.421Z,7.07
2023-04-25T15:40:51.330Z,2.33
2023-04-25T15:43:26.370Z,1.83
2023-04-25T15:46:01.747Z,3.22
2023-04-25T15:48:41.308Z,5.32
2023-04-25T15:51:17.572Z,3.92
2023-04-25T15:53:57.061Z,6.22
2023-04-25T15:56:45.527Z,4.30
2023-04-25T15:59:19.210Z,4.78
2023-04-25T16:02:03.703Z,5.10
2023-04-25T16:04:39.903Z,4.10
2023-04-25T16:07:19.563Z,4.30
2023-04-25T16:09:55.330Z,3.53
2023-04-25T16:12:40.007Z,7.57
2023-04-25T16:15:18.229Z,7.00
2023-04-25T16:17:54.820Z,4.80
2023-04-25T16:20:31.582Z,8.20
2023-04-25T16:23:05.158Z,7.53
2023-04-25T16:25:40.016Z,4.10
2023-04-25T16:28:14.123Z,10.93
2023-04-25T16:31:01.664Z,5.03
2023-04-25T16:33:35.807Z,4.75
2023-04-25T16:36:10.018Z,4.10
2023-04-25T16:38:43.349Z,6.40
2023-04-25T16:41:27.382Z,4.38
2023-04-25T16:44:01.750Z,5.22
2023-04-25T16:46:42.217Z,7.68
2023-04-25T16:49:22.679Z,4.93
2023-04-25T16:51:56.767Z,8.32
2023-04-25T16:54:37.847Z,7.78
2023-04-25T16:57:15.546Z,8.13
2023-04-25T16:59:49.586Z,10.55
2023-04-25T17:02:28.454Z,7.25
2023-04-25T17:05:04.223Z,6.93
2023-04-25T17:07:41.540Z,7.00
2023-04-25T17:10:27.397Z,6.57
2023-04-25T17:13:01.161Z,4.05
2023-04-25T17:15:37.726Z,4.65
2023-04-25T17:18:14.053Z,9.18
2023-04-25T17:20:53.387Z,6.70
2023-04-25T17:23:26.572Z,9.48
2023-04-25T17:26:05.131Z,10.80
2023-04-25T17:28:40.998Z,9.95
2023-04-25T17:31:25.991Z,8.95
2023-04-25T17:34:12.347Z,8.77
2023-04-25T17:36:53.432Z,7.13
2023-04-25T17:39:29.573Z,16.63
2023-04-25T17:42:03.985Z,20.73
2023-04-25T17:44:42.773Z,17.63
2023-04-25T17:47:27.792Z,17.75
2023-04-25T17:50:05.784Z,20.60
2023-04-25T17:52:52.823Z,18.17
2023-04-25T17:55:31.924Z,22.23
2023-04-25T17:58:04.389Z,13.80
2023-04-25T18:00:45.896Z,14.90
2023-04-25T18:03:20.221Z,17.45
2023-04-25T18:05:57.769Z,11.13
2023-04-25T18:08:38.248Z,10.65
2023-04-25T18:11:13.531Z,13.73
2023-04-25T18:13:54.497Z,11.40
2023-04-25T18:16:31.669Z,11.30
2023-04-25T18:19:18.165Z,13.75
2023-04-25T18:21:54.563Z,16.88
2023-04-25T18:24:35.564Z,16.05
2023-04-25T18:27:12.086Z,19.95
2023-04-25T18:29:48.401Z,21.35
2023-04-25T18:32:22.809Z,23.38
2023-04-25T18:35:00.085Z,23.33
2023-04-25T18:37:36.653Z,22.25
2023-04-25T18:40:14.165Z,21.10
2023-04-25T18:42:56.546Z,17.92
2023-04-25T18:45:30.571Z,17.45
2023-04-25T18:48:04.074Z,16.77
2023-04-25T18:50:41.263Z,15.73
2023-04-25T18:53:22.774Z,14.45
2023-04-25T18:55:57.053Z,14.95
2023-04-25T18:58:28.855Z,15.85
2023-04-25T19:01:02.665Z,27.35
2023-04-25T19:03:41.260Z,31.00
2023-04-25T19:06:25.993Z,29.70
2023-04-25T19:09:04.970Z,36.40
2023-04-25T19:11:42.175Z,30.00
2023-04-25T19:14:15.705Z,36.33
2023-04-25T19:16:47.418Z,32.30
2023-04-25T19:19:24.324Z,34.38
2023-04-25T19:22:00.579Z,35.47
2023-04-25T19:24:34.648Z,36.25
2023-04-25T19:27:10.938Z,36.65
2023-04-25T19:29:58.051Z,38.30
2023-04-25T19:32:34.190Z,37.10
2023-04-25T19:35:15.915Z,38.00
2023-04-25T19:37:51.292Z,44.05
2023-04-25T19:40:27.263Z,50.08
2023-04-25T19:43:06.646Z,46.60
2023-04-25T19:45:43.320Z,42.92
2023-04-25T19:48:20.038Z,63.60
2023-04-25T19:51:00.401Z,41.65
2023-04-25T19:53:38.067Z,45.67
2023-04-25T19:56:14.324Z,42.15
2023-04-25T19:58:53.722Z,36.20
2023-04-25T20:01:31.261Z,36.47
2023-04-25T20:04:10.352Z,26.33
2023-04-25T20:06:43.629Z,38.78
2023-04-25T20:09:21.371Z,32.25
2023-04-25T20:11:57.905Z,32.83
2023-04-25T20:14:33.088Z,27.40
2023-04-25T20:17:16.133Z,31.70
2023-04-25T20:19:52.301Z,32.13
2023-04-25T20:22:24.121Z,35.05
2023-04-25T20:24:59.431Z,27.80
2023-04-25T20:27:35.189Z,26.13
2023-04-25T20:30:23.622Z,22.33
2023-04-25T20:33:08.753Z,22.73
2023-04-25T20:35:49.736Z,24.38
2023-04-25T20:38:22.953Z,24.27
2023-04-25T20:41:04.965Z,24.52
2023-04-25T20:43:40.665Z,36.22
2023-04-25T20:46:19.065Z,38.03
2023-04-25T20:48:53.727Z,45.58
2023-04-25T20:51:32.448Z,53.28
2023-04-25T20:54:14.789Z,58.03
2023-04-25T20:56:58.915Z,65.15
2023-04-25T20:59:31.908Z,62.10
2023-04-25T21:02:11.370Z,45.63
2023-04-25T21:04:52.074Z,35.13
2023-04-25T21:07:29.304Z,34.28
2023-04-25T21:10:01.715Z,29.55
2023-04-25T21:12:36.413Z,26.00
2023-04-25T21:15:16.186Z,23.33
2023-04-25T21:17:52.804Z,22.95
2023-04-25T21:20:27.145Z,24.95
2023-04-25T21:23:02.838Z,29.08
2023-04-25T21:25:45.802Z,22.55
2023-04-25T21:28:19.502Z,22.13
2023-04-25T21:31:02.212Z,24.10
2023-04-25T21:33:42.824Z,27.42
2023-04-25T21:36:18.631Z,25.60
2023-04-25T21:38:57.647Z,24.13
2023-04-25T21:41:29.267Z,19.00
2023-04-25T21:44:09.233Z,20.95
2023-04-25T21:46:47.286Z,23.92
2023-04-25T21:49:29.777Z,21.92
2023-04-25T21:52:04.374Z,21.63
2023-04-25T21:54:42.776Z,18.90
2023-04-25T21:57:27.366Z,22.20
2023-04-25T22:00:23.008Z,20.88
2023-04-25T22:03:00.500Z,23.92
2023-04-25T22:05:47.715Z,22.15
2023-04-25T22:08:35.776Z,25.98
2023-04-25T22:11:12.730Z,21.70
2023-04-25T22:13:54.473Z,24.95
2023-04-25T22:16:30.513Z,26.65
2023-04-25T22:19:08.551Z,26.17
2023-04-25T22:21:45.340Z,28.55
2023-04-25T22:24:21.393Z,26.80
2023-04-25T22:27:03.309Z,24.42
2023-04-25T22:29:37.296Z,32.03
2023-04-25T22:32:12.543Z,28.10
2023-04-25T22:34:47.147Z,32.20
2023-04-25T22:37:22.596Z,30.20
2023-04-25T22:40:07.144Z,27.20
2023-04-25T22:42:57.578Z,29.08
2023-04-25T22:45:40.165Z,30.10
2023-04-25T22:48:24.279Z,35.38
2023-04-25T22:51:14.295Z,41.08
2023-04-25T22:53:51.013Z,33.00
2023-04-25T22:56:32.516Z,32.30
2023-04-25T22:59:06.622Z,32.20
2023-04-25T23:01:52.812Z,27.20
2023-04-25T23:04:32.775Z,15.43
2023-04-25T23:07:14.958Z,11.80
2023-04-25T23:09:55.085Z,15.68
2023-04-25T23:12:37.266Z,13.55
2023-04-25T23:15:24.409Z,12.55
2023-04-25T23:18:03.877Z,12.85
2023-04-25T23:20:40.203Z,13.65
2023-04-25T23:23:16.027Z,13.85
2023-04-25T23:25:57.590Z,13.57
2023-04-25T23:28:30.002Z,13.85
2023-04-25T23:31:14.524Z,13.00
2023-04-25T23:33:51.965Z,12.45
2023-04-25T23:36:35.754Z,13.68
2023-04-25T23:39:28.550Z,16.60
2023-04-25T23:42:05.388Z,13.38
2023-04-25T23:44:37.805Z,13.63
2023-04-25T23:47:21.801Z,12.43
2023-04-25T23:49:58.257Z,14.55
2023-04-25T23:52:38.994Z,16.42
2023-04-25T23:55:15.196Z,20.02
2023-04-25T23:57:51.448Z,15.45
